sensor_id;sensor_type;location;lat;lon;timestamp;temperature;humidity
4052;DHT22;2040;50.924;11.604;2022-12-18T00:01:51;-10.40;99.90
4052;DHT22;2040;50.924;11.604;2022-12-18T00:04:23;-10.30;99.90
4052;DHT22;2040;50.924;11.604;2022-12-18T00:06:49;-10.20;99.90
4052;DHT22;2040;50.924;11.604;2022-12-18T00:09:15;-10.20;99.90
4052;DHT22;2040;50.924;11.604;2022-12-18T00:11:41;-10.30;99.90
4052;DHT22;2040;50.924;11.604;2022-12-18T00:14:06;-10.40;99.90
4052;DHT22;2040;50.924;11.604;2022-12-18T00:16:32;-10.40;99.90
4052;DHT22;2040;50.924;11.604;2022-12-18T00:19:00;-10.40;99.90
4052;DHT22;2040;50.924;11.604;2022-12-18T00:21:27;-10.40;99.90
4052;DHT22;2040;50.924;11.604;2022-12-18T00:23:54;-10.40;99.90
4052;DHT22;2040;50.924;11.604;2022-12-18T00:26:23;-10.20;99.90
4052;DHT22;2040;50.924;11.604;2022-12-18T00:28:49;-10.00;99.90
4052;DHT22;2040;50.924;11.604;2022-12-18T00:31:18;-9.90;99.90
4052;DHT22;2040;50.924;11.604;2022-12-18T00:33:44;-10.00;99.90
4052;DHT22;2040;50.924;11.604;2022-12-18T00:36:13;-10.10;99.90
4052;DHT22;2040;50.924;11.604;2022-12-18T00:38:40;-10.30;99.90
4052;DHT22;2040;50.924;11.604;2022-12-18T00:41:06;-10.40;99.90
4052;DHT22;2040;50.924;11.604;2022-12-18T00:43:33;-10.40;99.90
4052;DHT22;2040;50.924;11.604;2022-12-18T00:45:58;-10.20;99.90
4052;DHT22;2040;50.924;11.604;2022-12-18T00:48:24;-10.30;99.90
4052;DHT22;2040;50.924;11.604;2022-12-18T00:50:50;-10.40;99.90
4052;DHT22;2040;50.924;11.604;2022-12-18T00:53:16;-10.50;99.90
4052;DHT22;2040;50.924;11.604;2022-12-18T00:55:42;-10.50;99.90
4052;DHT22;2040;50.924;11.604;2022-12-18T00:58:09;-10.40;99.90
4052;DHT22;2040;50.924;11.604;2022-12-18T01:00:35;-10.70;99.90
4052;DHT22;2040;50.924;11.604;2022-12-18T01:03:01;-10.80;99.90
4052;DHT22;2040;50.924;11.604;2022-12-18T01:05:26;-10.90;99.90
4052;DHT22;2040;50.924;11.604;2022-12-18T01:07:52;-10.90;99.90
4052;DHT22;2040;50.924;11.604;2022-12-18T01:10:18;-11.00;99.90
4052;DHT22;2040;50.924;11.604;2022-12-18T01:12:44;-11.00;99.90
4052;DHT22;2040;50.924;11.604;2022-12-18T01:15:12;-11.10;99.90
4052;DHT22;2040;50.924;11.604;2022-12-18T01:17:38;-11.20;99.90
4052;DHT22;2040;50.924;11.604;2022-12-18T01:20:04;-11.20;99.90
4052;DHT22;2040;50.924;11.604;2022-12-18T01:22:29;-11.20;99.90
4052;DHT22;2040;50.924;11.604;2022-12-18T01:24:55;-11.20;99.90
4052;DHT22;2040;50.924;11.604;2022-12-18T01:27:21;-11.20;99.90
4052;DHT22;2040;50.924;11.604;2022-12-18T01:29:47;-11.10;99.90
4052;DHT22;2040;50.924;11.604;2022-12-18T01:32:13;-11.20;99.90
4052;DHT22;2040;50.924;11.604;2022-12-18T01:34:41;-11.30;99.90
4052;DHT22;2040;50.924;11.604;2022-12-18T01:37:07;-11.30;99.90
4052;DHT22;2040;50.924;11.604;2022-12-18T01:39:33;-11.40;99.90
4052;DHT22;2040;50.924;11.604;2022-12-18T01:42:14;-11.40;99.90
4052;DHT22;2040;50.924;11.604;2022-12-18T01:50:22;-11.50;99.90
4052;DHT22;2040;50.924;11.604;2022-12-18T01:52:52;-11.10;99.90
4052;DHT22;2040;50.924;11.604;2022-12-18T01:55:21;-11.20;99.90
4052;DHT22;2040;50.924;11.604;2022-12-18T01:57:48;-11.30;99.90
4052;DHT22;2040;50.924;11.604;2022-12-18T02:00:18;-11.30;99.90
4052;DHT22;2040;50.924;11.604;2022-12-18T02:02:45;-11.20;99.90
4052;DHT22;2040;50.924;11.604;2022-12-18T02:05:16;-11.20;99.90
4052;DHT22;2040;50.924;11.604;2022-12-18T02:08:14;-11.10;99.90
4052;DHT22;2040;50.924;11.604;2022-12-18T02:18:38;-11.50;99.90
4052;DHT22;2040;50.924;11.604;2022-12-18T02:23:40;-11.80;99.90
4052;DHT22;2040;50.924;11.604;2022-12-18T02:26:38;-11.70;99.90
4052;DHT22;2040;50.924;11.604;2022-12-18T02:29:15;-11.70;99.90
4052;DHT22;2040;50.924;11.604;2022-12-18T02:31:49;-11.40;99.90
4052;DHT22;2040;50.924;11.604;2022-12-18T02:34:18;-11.40;99.90
4052;DHT22;2040;50.924;11.604;2022-12-18T02:36:45;-11.30;99.90
4052;DHT22;2040;50.924;11.604;2022-12-18T02:39:13;-11.50;99.90
4052;DHT22;2040;50.924;11.604;2022-12-18T02:41:40;-11.60;99.90
4052;DHT22;2040;50.924;11.604;2022-12-18T02:44:09;-11.40;99.90
4052;DHT22;2040;50.924;11.604;2022-12-18T02:46:38;-11.20;99.90
4052;DHT22;2040;50.924;11.604;2022-12-18T02:55:13;-11.60;99.90
4052;DHT22;2040;50.924;11.604;2022-12-18T02:57:48;-11.30;99.90
4052;DHT22;2040;50.924;11.604;2022-12-18T03:00:29;-11.40;99.90
4052;DHT22;2040;50.924;11.604;2022-12-18T03:05:35;-11.60;99.90
4052;DHT22;2040;50.924;11.604;2022-12-18T03:08:08;-11.50;99.90
4052;DHT22;2040;50.924;11.604;2022-12-18T03:10:39;-11.50;99.90
4052;DHT22;2040;50.924;11.604;2022-12-18T03:13:09;-11.50;99.90
4052;DHT22;2040;50.924;11.604;2022-12-18T03:15:44;-11.50;99.90
4052;DHT22;2040;50.924;11.604;2022-12-18T03:18:15;-11.50;99.90
4052;DHT22;2040;50.924;11.604;2022-12-18T03:20:44;-11.70;99.90
4052;DHT22;2040;50.924;11.604;2022-12-18T03:23:15;-11.80;99.90
4052;DHT22;2040;50.924;11.604;2022-12-18T03:25:44;-12.00;99.90
4052;DHT22;2040;50.924;11.604;2022-12-18T03:28:14;-11.90;99.90
4052;DHT22;2040;50.924;11.604;2022-12-18T03:30:43;-11.90;99.90
4052;DHT22;2040;50.924;11.604;2022-12-18T03:33:15;-12.00;99.90
4052;DHT22;2040;50.924;11.604;2022-12-18T03:35:45;-12.20;99.90
4052;DHT22;2040;50.924;11.604;2022-12-18T03:38:11;-12.30;99.90
4052;DHT22;2040;50.924;11.604;2022-12-18T03:40:50;-12.30;99.90
4052;DHT22;2040;50.924;11.604;2022-12-18T03:46:03;-12.10;99.90
4052;DHT22;2040;50.924;11.604;2022-12-18T03:48:41;-12.20;99.90
4052;DHT22;2040;50.924;11.604;2022-12-18T03:51:25;-12.20;99.90
4052;DHT22;2040;50.924;11.604;2022-12-18T03:53:57;-12.20;99.90
4052;DHT22;2040;50.924;11.604;2022-12-18T03:56:26;-12.00;99.90
4052;DHT22;2040;50.924;11.604;2022-12-18T03:58:55;-11.70;99.90
4052;DHT22;2040;50.924;11.604;2022-12-18T04:01:30;-11.70;99.90
4052;DHT22;2040;50.924;11.604;2022-12-18T04:03:59;-12.00;99.90
4052;DHT22;2040;50.924;11.604;2022-12-18T04:06:26;-12.10;99.90
4052;DHT22;2040;50.924;11.604;2022-12-18T04:08:52;-12.30;99.90
4052;DHT22;2040;50.924;11.604;2022-12-18T04:11:18;-12.30;99.90
4052;DHT22;2040;50.924;11.604;2022-12-18T04:13:43;-12.30;99.90
4052;DHT22;2040;50.924;11.604;2022-12-18T04:16:09;-12.20;99.90
4052;DHT22;2040;50.924;11.604;2022-12-18T04:18:36;-12.20;99.90
4052;DHT22;2040;50.924;11.604;2022-12-18T04:21:02;-12.20;99.90
4052;DHT22;2040;50.924;11.604;2022-12-18T04:23:28;-12.20;99.90
4052;DHT22;2040;50.924;11.604;2022-12-18T04:25:54;-12.30;99.90
4052;DHT22;2040;50.924;11.604;2022-12-18T04:28:19;-12.30;99.90
4052;DHT22;2040;50.924;11.604;2022-12-18T04:30:45;-12.30;99.90
4052;DHT22;2040;50.924;11.604;2022-12-18T04:33:14;-12.30;99.90
4052;DHT22;2040;50.924;11.604;2022-12-18T04:35:40;-12.30;99.90
4052;DHT22;2040;50.924;11.604;2022-12-18T04:38:06;-12.40;99.90
4052;DHT22;2040;50.924;11.604;2022-12-18T04:40:35;-12.40;99.90
4052;DHT22;2040;50.924;11.604;2022-12-18T04:43:01;-12.40;99.90
4052;DHT22;2040;50.924;11.604;2022-12-18T04:45:27;-12.50;99.90
4052;DHT22;2040;50.924;11.604;2022-12-18T04:47:52;-12.50;99.90
4052;DHT22;2040;50.924;11.604;2022-12-18T04:50:18;-12.20;99.90
4052;DHT22;2040;50.924;11.604;2022-12-18T04:52:43;-12.10;99.90
4052;DHT22;2040;50.924;11.604;2022-12-18T04:55:09;-12.30;99.90
4052;DHT22;2040;50.924;11.604;2022-12-18T04:57:35;-12.40;99.90
4052;DHT22;2040;50.924;11.604;2022-12-18T05:00:00;-12.10;99.90
4052;DHT22;2040;50.924;11.604;2022-12-18T05:02:26;-12.20;99.90
4052;DHT22;2040;50.924;11.604;2022-12-18T05:04:52;-12.20;99.90
4052;DHT22;2040;50.924;11.604;2022-12-18T05:07:17;-12.20;99.90
4052;DHT22;2040;50.924;11.604;2022-12-18T05:09:43;-12.40;99.90
4052;DHT22;2040;50.924;11.604;2022-12-18T05:12:08;-12.60;99.90
4052;DHT22;2040;50.924;11.604;2022-12-18T05:14:34;-12.70;99.90
4052;DHT22;2040;50.924;11.604;2022-12-18T05:16:59;-12.30;99.90
4052;DHT22;2040;50.924;11.604;2022-12-18T05:19:25;-12.30;99.90
4052;DHT22;2040;50.924;11.604;2022-12-18T05:21:51;-12.30;99.90
4052;DHT22;2040;50.924;11.604;2022-12-18T05:24:16;-12.60;99.90
4052;DHT22;2040;50.924;11.604;2022-12-18T05:26:42;-12.60;99.90
4052;DHT22;2040;50.924;11.604;2022-12-18T05:29:07;-12.70;99.90
4052;DHT22;2040;50.924;11.604;2022-12-18T05:31:33;-12.80;99.90
4052;DHT22;2040;50.924;11.604;2022-12-18T05:33:58;-12.60;99.90
4052;DHT22;2040;50.924;11.604;2022-12-18T05:36:24;-12.70;99.90
4052;DHT22;2040;50.924;11.604;2022-12-18T05:38:50;-12.70;99.90
4052;DHT22;2040;50.924;11.604;2022-12-18T05:41:15;-12.80;99.90
4052;DHT22;2040;50.924;11.604;2022-12-18T05:43:41;-12.70;99.90
4052;DHT22;2040;50.924;11.604;2022-12-18T05:46:11;-12.60;99.90
4052;DHT22;2040;50.924;11.604;2022-12-18T05:48:37;-12.50;99.90
4052;DHT22;2040;50.924;11.604;2022-12-18T05:51:09;-12.50;99.90
4052;DHT22;2040;50.924;11.604;2022-12-18T05:53:36;-12.40;99.90
4052;DHT22;2040;50.924;11.604;2022-12-18T05:56:03;-12.50;99.90
4052;DHT22;2040;50.924;11.604;2022-12-18T05:58:30;-12.40;99.90
4052;DHT22;2040;50.924;11.604;2022-12-18T06:00:56;-12.50;99.90
4052;DHT22;2040;50.924;11.604;2022-12-18T06:03:22;-12.60;99.90
4052;DHT22;2040;50.924;11.604;2022-12-18T06:05:48;-12.70;99.90
4052;DHT22;2040;50.924;11.604;2022-12-18T06:08:13;-12.80;99.90
4052;DHT22;2040;50.924;11.604;2022-12-18T06:10:40;-12.90;99.90
4052;DHT22;2040;50.924;11.604;2022-12-18T06:13:06;-12.80;99.90
4052;DHT22;2040;50.924;11.604;2022-12-18T06:15:32;-12.80;99.90
4052;DHT22;2040;50.924;11.604;2022-12-18T06:17:58;-12.80;99.90
4052;DHT22;2040;50.924;11.604;2022-12-18T06:20:25;-12.80;99.90
4052;DHT22;2040;50.924;11.604;2022-12-18T06:22:51;-12.80;99.90
4052;DHT22;2040;50.924;11.604;2022-12-18T06:25:16;-12.80;99.90
4052;DHT22;2040;50.924;11.604;2022-12-18T06:27:42;-12.50;99.90
4052;DHT22;2040;50.924;11.604;2022-12-18T06:30:08;-12.60;99.90
4052;DHT22;2040;50.924;11.604;2022-12-18T06:32:34;-12.60;99.90
4052;DHT22;2040;50.924;11.604;2022-12-18T06:35:00;-12.60;99.90
4052;DHT22;2040;50.924;11.604;2022-12-18T06:37:26;-12.60;99.90
4052;DHT22;2040;50.924;11.604;2022-12-18T06:39:52;-12.60;99.90
4052;DHT22;2040;50.924;11.604;2022-12-18T06:42:18;-12.70;99.90
4052;DHT22;2040;50.924;11.604;2022-12-18T06:44:44;-12.80;99.90
4052;DHT22;2040;50.924;11.604;2022-12-18T06:47:09;-12.90;99.90
4052;DHT22;2040;50.924;11.604;2022-12-18T06:49:35;-12.90;99.90
4052;DHT22;2040;50.924;11.604;2022-12-18T06:52:00;-13.00;99.90
4052;DHT22;2040;50.924;11.604;2022-12-18T06:54:26;-12.90;99.90
4052;DHT22;2040;50.924;11.604;2022-12-18T06:56:52;-12.90;99.90
4052;DHT22;2040;50.924;11.604;2022-12-18T06:59:17;-12.80;99.90
4052;DHT22;2040;50.924;11.604;2022-12-18T07:01:43;-13.00;99.90
4052;DHT22;2040;50.924;11.604;2022-12-18T07:04:08;-13.00;99.90
4052;DHT22;2040;50.924;11.604;2022-12-18T07:06:34;-13.10;99.90
4052;DHT22;2040;50.924;11.604;2022-12-18T07:09:00;-13.00;99.90
4052;DHT22;2040;50.924;11.604;2022-12-18T07:11:25;-13.20;99.90
4052;DHT22;2040;50.924;11.604;2022-12-18T07:13:52;-13.10;99.90
4052;DHT22;2040;50.924;11.604;2022-12-18T07:16:18;-13.10;99.90
4052;DHT22;2040;50.924;11.604;2022-12-18T07:18:45;-13.10;99.90
4052;DHT22;2040;50.924;11.604;2022-12-18T07:21:13;-13.10;99.90
4052;DHT22;2040;50.924;11.604;2022-12-18T07:23:39;-12.90;99.90
4052;DHT22;2040;50.924;11.604;2022-12-18T07:26:07;-12.70;99.90
4052;DHT22;2040;50.924;11.604;2022-12-18T07:28:34;-12.70;99.90
4052;DHT22;2040;50.924;11.604;2022-12-18T07:31:04;-12.80;99.90
4052;DHT22;2040;50.924;11.604;2022-12-18T07:33:29;-12.50;99.90
4052;DHT22;2040;50.924;11.604;2022-12-18T07:35:55;-12.60;99.90
4052;DHT22;2040;50.924;11.604;2022-12-18T07:38:21;-12.60;99.90
4052;DHT22;2040;50.924;11.604;2022-12-18T07:40:46;-12.70;99.90
4052;DHT22;2040;50.924;11.604;2022-12-18T07:43:12;-12.80;99.90
4052;DHT22;2040;50.924;11.604;2022-12-18T07:45:38;-12.80;99.90
4052;DHT22;2040;50.924;11.604;2022-12-18T07:48:04;-12.90;99.90
4052;DHT22;2040;50.924;11.604;2022-12-18T07:50:29;-13.00;99.90
4052;DHT22;2040;50.924;11.604;2022-12-18T07:52:55;-13.00;99.90
4052;DHT22;2040;50.924;11.604;2022-12-18T07:55:21;-13.00;99.90
4052;DHT22;2040;50.924;11.604;2022-12-18T07:57:46;-13.20;99.90
4052;DHT22;2040;50.924;11.604;2022-12-18T08:00:12;-13.10;99.90
4052;DHT22;2040;50.924;11.604;2022-12-18T08:02:38;-13.10;99.90
4052;DHT22;2040;50.924;11.604;2022-12-18T08:05:04;-13.10;99.90
4052;DHT22;2040;50.924;11.604;2022-12-18T08:07:30;-12.90;99.90
4052;DHT22;2040;50.924;11.604;2022-12-18T08:09:55;-12.90;99.90
4052;DHT22;2040;50.924;11.604;2022-12-18T08:12:21;-12.80;99.90
4052;DHT22;2040;50.924;11.604;2022-12-18T08:14:47;-12.90;99.90
4052;DHT22;2040;50.924;11.604;2022-12-18T08:17:12;-12.90;99.90
4052;DHT22;2040;50.924;11.604;2022-12-18T08:19:38;-12.70;99.90
4052;DHT22;2040;50.924;11.604;2022-12-18T08:22:03;-12.60;99.90
4052;DHT22;2040;50.924;11.604;2022-12-18T08:24:29;-12.60;99.90
4052;DHT22;2040;50.924;11.604;2022-12-18T08:26:55;-12.30;99.90
4052;DHT22;2040;50.924;11.604;2022-12-18T08:29:22;-12.40;99.90
4052;DHT22;2040;50.924;11.604;2022-12-18T08:31:48;-12.10;99.90
4052;DHT22;2040;50.924;11.604;2022-12-18T08:34:13;-12.10;99.90
4052;DHT22;2040;50.924;11.604;2022-12-18T08:36:40;-12.00;99.90
4052;DHT22;2040;50.924;11.604;2022-12-18T08:39:05;-11.90;99.90
4052;DHT22;2040;50.924;11.604;2022-12-18T08:41:31;-11.90;99.90
4052;DHT22;2040;50.924;11.604;2022-12-18T08:43:56;-11.80;99.90
4052;DHT22;2040;50.924;11.604;2022-12-18T08:46:42;-11.90;99.90
4052;DHT22;2040;50.924;11.604;2022-12-18T08:49:09;-12.00;99.90
4052;DHT22;2040;50.924;11.604;2022-12-18T08:51:35;-12.00;99.90
4052;DHT22;2040;50.924;11.604;2022-12-18T08:54:01;-11.90;99.90
4052;DHT22;2040;50.924;11.604;2022-12-18T08:56:27;-11.90;99.90
4052;DHT22;2040;50.924;11.604;2022-12-18T08:58:54;-11.80;99.90
4052;DHT22;2040;50.924;11.604;2022-12-18T09:01:20;-11.60;99.90
4052;DHT22;2040;50.924;11.604;2022-12-18T09:03:46;-11.50;99.90
4052;DHT22;2040;50.924;11.604;2022-12-18T09:06:14;-11.40;99.90
4052;DHT22;2040;50.924;11.604;2022-12-18T09:08:41;-11.40;99.90
4052;DHT22;2040;50.924;11.604;2022-12-18T09:11:13;-11.30;99.90
4052;DHT22;2040;50.924;11.604;2022-12-18T09:13:39;-11.20;99.90
4052;DHT22;2040;50.924;11.604;2022-12-18T09:16:05;-11.20;99.90
4052;DHT22;2040;50.924;11.604;2022-12-18T09:18:30;-11.10;99.90
4052;DHT22;2040;50.924;11.604;2022-12-18T09:20:56;-11.00;99.90
4052;DHT22;2040;50.924;11.604;2022-12-18T09:23:21;-11.10;99.90
4052;DHT22;2040;50.924;11.604;2022-12-18T09:25:48;-11.00;99.90
4052;DHT22;2040;50.924;11.604;2022-12-18T09:28:18;-10.90;99.90
4052;DHT22;2040;50.924;11.604;2022-12-18T09:30:47;-10.80;99.90
4052;DHT22;2040;50.924;11.604;2022-12-18T09:33:14;-10.70;99.90
4052;DHT22;2040;50.924;11.604;2022-12-18T09:35:41;-10.70;99.90
4052;DHT22;2040;50.924;11.604;2022-12-18T09:38:09;-10.70;99.90
4052;DHT22;2040;50.924;11.604;2022-12-18T09:40:45;-10.50;99.90
4052;DHT22;2040;50.924;11.604;2022-12-18T09:46:07;-10.30;99.90
4052;DHT22;2040;50.924;11.604;2022-12-18T09:48:46;-10.00;99.90
4052;DHT22;2040;50.924;11.604;2022-12-18T09:51:27;-9.90;99.90
4052;DHT22;2040;50.924;11.604;2022-12-18T09:54:00;-9.70;99.90
4052;DHT22;2040;50.924;11.604;2022-12-18T09:56:30;-9.50;99.90
4052;DHT22;2040;50.924;11.604;2022-12-18T09:59:02;-9.70;99.90
4052;DHT22;2040;50.924;11.604;2022-12-18T10:01:29;-9.80;99.90
4052;DHT22;2040;50.924;11.604;2022-12-18T10:03:58;-9.70;99.90
4052;DHT22;2040;50.924;11.604;2022-12-18T10:06:36;-9.60;99.90
4052;DHT22;2040;50.924;11.604;2022-12-18T10:09:20;-9.60;99.90
4052;DHT22;2040;50.924;11.604;2022-12-18T10:12:08;-9.50;99.90
4052;DHT22;2040;50.924;11.604;2022-12-18T10:14:54;-9.30;99.90
4052;DHT22;2040;50.924;11.604;2022-12-18T10:17:45;-8.90;99.90
4052;DHT22;2040;50.924;11.604;2022-12-18T10:20:37;-8.70;99.90
4052;DHT22;2040;50.924;11.604;2022-12-18T10:26:03;-8.40;99.90
4052;DHT22;2040;50.924;11.604;2022-12-18T10:28:36;-8.10;99.90
4052;DHT22;2040;50.924;11.604;2022-12-18T10:31:06;-8.00;99.90
4052;DHT22;2040;50.924;11.604;2022-12-18T10:33:33;-7.80;99.90
4052;DHT22;2040;50.924;11.604;2022-12-18T10:35:59;-7.50;99.90
4052;DHT22;2040;50.924;11.604;2022-12-18T10:43:42;-7.40;99.90
4052;DHT22;2040;50.924;11.604;2022-12-18T10:51:06;-7.30;99.90
4052;DHT22;2040;50.924;11.604;2022-12-18T10:53:34;-7.20;99.90
4052;DHT22;2040;50.924;11.604;2022-12-18T10:56:03;-7.00;99.90
4052;DHT22;2040;50.924;11.604;2022-12-18T10:58:33;-6.80;99.90
4052;DHT22;2040;50.924;11.604;2022-12-18T11:01:19;-6.70;99.90
4052;DHT22;2040;50.924;11.604;2022-12-18T11:04:08;-6.50;99.90
4052;DHT22;2040;50.924;11.604;2022-12-18T11:06:34;-6.20;99.90
4052;DHT22;2040;50.924;11.604;2022-12-18T11:09:26;-5.90;99.90
4052;DHT22;2040;50.924;11.604;2022-12-18T11:11:58;-5.80;99.90
4052;DHT22;2040;50.924;11.604;2022-12-18T11:14:28;-5.60;99.90
4052;DHT22;2040;50.924;11.604;2022-12-18T11:16:55;-5.40;99.90
4052;DHT22;2040;50.924;11.604;2022-12-18T11:21:50;-5.00;99.90
4052;DHT22;2040;50.924;11.604;2022-12-18T11:24:35;-4.90;99.90
4052;DHT22;2040;50.924;11.604;2022-12-18T11:27:04;-5.10;99.90
4052;DHT22;2040;50.924;11.604;2022-12-18T11:29:36;-5.00;99.90
4052;DHT22;2040;50.924;11.604;2022-12-18T11:34:44;-4.60;99.90
4052;DHT22;2040;50.924;11.604;2022-12-18T11:37:11;-4.40;99.90
4052;DHT22;2040;50.924;11.604;2022-12-18T11:40:01;-4.40;99.90
4052;DHT22;2040;50.924;11.604;2022-12-18T11:53:10;-3.60;99.90
4052;DHT22;2040;50.924;11.604;2022-12-18T11:55:41;-3.30;99.90
4052;DHT22;2040;50.924;11.604;2022-12-18T12:00:52;-3.50;99.90
4052;DHT22;2040;50.924;11.604;2022-12-18T12:09:10;-3.50;99.90
4052;DHT22;2040;50.924;11.604;2022-12-18T12:14:31;-2.90;99.90
4052;DHT22;2040;50.924;11.604;2022-12-18T12:22:42;-3.50;99.90
4052;DHT22;2040;50.924;11.604;2022-12-18T12:28:09;-2.80;99.90
4052;DHT22;2040;50.924;11.604;2022-12-18T12:31:05;-2.70;99.90
4052;DHT22;2040;50.924;11.604;2022-12-18T12:38:44;-2.50;99.90
4052;DHT22;2040;50.924;11.604;2022-12-18T12:41:18;-2.40;99.90
4052;DHT22;2040;50.924;11.604;2022-12-18T12:44:14;-2.20;99.90
4052;DHT22;2040;50.924;11.604;2022-12-18T12:46:41;-2.10;99.90
4052;DHT22;2040;50.924;11.604;2022-12-18T12:49:19;-2.30;99.90
4052;DHT22;2040;50.924;11.604;2022-12-18T12:51:56;-2.00;99.90
4052;DHT22;2040;50.924;11.604;2022-12-18T12:54:25;-1.50;99.90
4052;DHT22;2040;50.924;11.604;2022-12-18T12:59:30;-0.70;99.90
4052;DHT22;2040;50.924;11.604;2022-12-18T13:02:05;-0.70;99.90
4052;DHT22;2040;50.924;11.604;2022-12-18T13:05:16;-1.00;99.90
4052;DHT22;2040;50.924;11.604;2022-12-18T13:07:50;-1.30;99.90
4052;DHT22;2040;50.924;11.604;2022-12-18T13:23:00;-2.10;99.90
4052;DHT22;2040;50.924;11.604;2022-12-18T13:25:37;-2.10;99.90
4052;DHT22;2040;50.924;11.604;2022-12-18T13:38:33;-2.30;99.90
4052;DHT22;2040;50.924;11.604;2022-12-18T13:43:49;-2.20;99.90
4052;DHT22;2040;50.924;11.604;2022-12-18T13:46:45;-2.10;99.90
4052;DHT22;2040;50.924;11.604;2022-12-18T13:51:46;-2.20;99.90
4052;DHT22;2040;50.924;11.604;2022-12-18T13:54:19;-2.40;99.90
4052;DHT22;2040;50.924;11.604;2022-12-18T13:56:46;-2.40;99.90
4052;DHT22;2040;50.924;11.604;2022-12-18T13:59:22;-2.30;99.90
4052;DHT22;2040;50.924;11.604;2022-12-18T14:01:54;-2.60;99.90
4052;DHT22;2040;50.924;11.604;2022-12-18T14:06:57;-2.30;99.90
4052;DHT22;2040;50.924;11.604;2022-12-18T14:09:27;-2.30;99.90
4052;DHT22;2040;50.924;11.604;2022-12-18T14:11:54;-2.30;99.90
4052;DHT22;2040;50.924;11.604;2022-12-18T14:14:43;-2.40;99.90
4052;DHT22;2040;50.924;11.604;2022-12-18T14:17:12;-2.40;99.90
4052;DHT22;2040;50.924;11.604;2022-12-18T14:19:44;-2.40;99.90
4052;DHT22;2040;50.924;11.604;2022-12-18T14:22:25;-2.60;99.90
4052;DHT22;2040;50.924;11.604;2022-12-18T14:27:43;-2.70;99.90
4052;DHT22;2040;50.924;11.604;2022-12-18T14:30:31;-2.90;99.90
4052;DHT22;2040;50.924;11.604;2022-12-18T14:33:24;-2.90;99.90
4052;DHT22;2040;50.924;11.604;2022-12-18T14:36:03;-2.80;99.90
4052;DHT22;2040;50.924;11.604;2022-12-18T14:38:38;-2.80;99.90
4052;DHT22;2040;50.924;11.604;2022-12-18T14:41:12;-2.60;99.90
4052;DHT22;2040;50.924;11.604;2022-12-18T14:43:41;-2.50;99.90
4052;DHT22;2040;50.924;11.604;2022-12-18T14:46:35;-2.50;99.90
4052;DHT22;2040;50.924;11.604;2022-12-18T14:49:32;-2.50;99.90
4052;DHT22;2040;50.924;11.604;2022-12-18T14:52:00;-2.50;99.90
4052;DHT22;2040;50.924;11.604;2022-12-18T14:54:27;-2.60;99.90
4052;DHT22;2040;50.924;11.604;2022-12-18T14:57:16;-2.70;99.90
4052;DHT22;2040;50.924;11.604;2022-12-18T14:59:44;-2.70;99.90
4052;DHT22;2040;50.924;11.604;2022-12-18T15:02:22;-2.60;99.90
4052;DHT22;2040;50.924;11.604;2022-12-18T15:05:19;-2.50;99.90
4052;DHT22;2040;50.924;11.604;2022-12-18T15:07:50;-2.50;99.90
4052;DHT22;2040;50.924;11.604;2022-12-18T15:10:20;-2.60;99.90
4052;DHT22;2040;50.924;11.604;2022-12-18T15:20:48;-3.00;99.90
4052;DHT22;2040;50.924;11.604;2022-12-18T15:23:23;-3.00;99.90
4052;DHT22;2040;50.924;11.604;2022-12-18T15:26:20;-3.00;99.90
4052;DHT22;2040;50.924;11.604;2022-12-18T15:28:48;-3.00;99.90
4052;DHT22;2040;50.924;11.604;2022-12-18T15:36:20;-3.10;99.90
4052;DHT22;2040;50.924;11.604;2022-12-18T15:38:47;-3.30;99.90
4052;DHT22;2040;50.924;11.604;2022-12-18T15:41:19;-3.30;99.90
4052;DHT22;2040;50.924;11.604;2022-12-18T15:43:46;-3.40;99.90
4052;DHT22;2040;50.924;11.604;2022-12-18T15:46:14;-3.30;99.90
4052;DHT22;2040;50.924;11.604;2022-12-18T15:48:44;-3.20;99.90
4052;DHT22;2040;50.924;11.604;2022-12-18T15:51:16;-3.20;99.90
4052;DHT22;2040;50.924;11.604;2022-12-18T15:53:42;-3.10;99.90
4052;DHT22;2040;50.924;11.604;2022-12-18T15:56:12;-3.00;99.90
4052;DHT22;2040;50.924;11.604;2022-12-18T15:58:57;-3.00;99.90
4052;DHT22;2040;50.924;11.604;2022-12-18T16:01:25;-2.90;99.90
4052;DHT22;2040;50.924;11.604;2022-12-18T16:03:51;-2.80;99.90
4052;DHT22;2040;50.924;11.604;2022-12-18T16:06:16;-2.90;99.90
4052;DHT22;2040;50.924;11.604;2022-12-18T16:08:42;-2.90;99.90
4052;DHT22;2040;50.924;11.604;2022-12-18T16:11:22;-2.80;99.90
4052;DHT22;2040;50.924;11.604;2022-12-18T16:16:54;-2.60;99.90
4052;DHT22;2040;50.924;11.604;2022-12-18T16:19:20;-2.60;99.90
4052;DHT22;2040;50.924;11.604;2022-12-18T16:21:47;-2.70;99.90
4052;DHT22;2040;50.924;11.604;2022-12-18T16:24:21;-2.70;99.90
4052;DHT22;2040;50.924;11.604;2022-12-18T16:26:48;-2.80;99.90
4052;DHT22;2040;50.924;11.604;2022-12-18T16:29:14;-2.80;99.90
4052;DHT22;2040;50.924;11.604;2022-12-18T16:31:39;-2.80;99.90
4052;DHT22;2040;50.924;11.604;2022-12-18T16:34:18;-2.70;99.90
4052;DHT22;2040;50.924;11.604;2022-12-18T16:36:46;-2.60;99.90
4052;DHT22;2040;50.924;11.604;2022-12-18T16:39:12;-2.60;99.90
4052;DHT22;2040;50.924;11.604;2022-12-18T16:41:37;-2.70;99.90
4052;DHT22;2040;50.924;11.604;2022-12-18T16:44:03;-2.60;99.90
4052;DHT22;2040;50.924;11.604;2022-12-18T16:46:29;-2.60;99.90
4052;DHT22;2040;50.924;11.604;2022-12-18T16:48:57;-2.60;99.90
4052;DHT22;2040;50.924;11.604;2022-12-18T16:51:23;-2.60;99.90
4052;DHT22;2040;50.924;11.604;2022-12-18T16:53:49;-2.70;99.90
4052;DHT22;2040;50.924;11.604;2022-12-18T16:56:15;-2.60;99.90
4052;DHT22;2040;50.924;11.604;2022-12-18T16:58:40;-2.50;99.90
4052;DHT22;2040;50.924;11.604;2022-12-18T17:01:10;-2.40;99.90
4052;DHT22;2040;50.924;11.604;2022-12-18T17:03:36;-2.40;99.90
4052;DHT22;2040;50.924;11.604;2022-12-18T17:06:03;-2.50;99.90
4052;DHT22;2040;50.924;11.604;2022-12-18T17:08:29;-2.50;99.90
4052;DHT22;2040;50.924;11.604;2022-12-18T17:10:55;-2.60;99.90
4052;DHT22;2040;50.924;11.604;2022-12-18T17:13:20;-2.70;99.90
4052;DHT22;2040;50.924;11.604;2022-12-18T17:15:46;-2.80;99.90
4052;DHT22;2040;50.924;11.604;2022-12-18T17:18:11;-2.80;99.90
4052;DHT22;2040;50.924;11.604;2022-12-18T17:20:37;-2.70;99.90
4052;DHT22;2040;50.924;11.604;2022-12-18T17:23:02;-2.80;99.90
4052;DHT22;2040;50.924;11.604;2022-12-18T17:25:28;-2.70;99.90
4052;DHT22;2040;50.924;11.604;2022-12-18T17:27:53;-2.70;99.90
4052;DHT22;2040;50.924;11.604;2022-12-18T17:30:19;-2.60;99.90
4052;DHT22;2040;50.924;11.604;2022-12-18T17:32:45;-2.60;99.90
4052;DHT22;2040;50.924;11.604;2022-12-18T17:35:10;-2.60;99.90
4052;DHT22;2040;50.924;11.604;2022-12-18T17:37:36;-2.60;99.90
4052;DHT22;2040;50.924;11.604;2022-12-18T17:40:01;-2.60;99.90
4052;DHT22;2040;50.924;11.604;2022-12-18T17:42:27;-2.70;99.90
4052;DHT22;2040;50.924;11.604;2022-12-18T17:44:53;-2.70;99.90
4052;DHT22;2040;50.924;11.604;2022-12-18T17:47:18;-2.70;99.90
4052;DHT22;2040;50.924;11.604;2022-12-18T17:49:44;-2.70;99.90
4052;DHT22;2040;50.924;11.604;2022-12-18T17:52:10;-2.70;99.90
4052;DHT22;2040;50.924;11.604;2022-12-18T17:54:36;-2.80;99.90
4052;DHT22;2040;50.924;11.604;2022-12-18T17:57:04;-2.80;99.90
4052;DHT22;2040;50.924;11.604;2022-12-18T17:59:30;-2.80;99.90
4052;DHT22;2040;50.924;11.604;2022-12-18T18:01:55;-2.80;99.90
4052;DHT22;2040;50.924;11.604;2022-12-18T18:04:21;-2.80;99.90
4052;DHT22;2040;50.924;11.604;2022-12-18T18:06:47;-2.90;99.90
4052;DHT22;2040;50.924;11.604;2022-12-18T18:09:12;-2.80;99.90